Time;durP1;ratioP1;P1;durP2;ratioP2;P2;SDS_P1;SDS_P2;PMS_P1;PMS_P2;Temp;Humidity;BMP_temperature;BMP_pressure;BME280_temperature;BME280_humidity;BME280_pressure;Samples;Min_cycle;Max_cycle;Signal;HPM_P1;HPM_P2
2023/12/15 00:02:22;;;;;;;1.57;1.47;;;;;;;;;;6183349;23;20256;-86
2023/12/15 00:04:52;;;;;;;6.20;3.37;;;;;;;;;;6182979;23;20190;-86
2023/12/15 00:07:20;;;;;;;8.10;2.83;;;;;;;;;;6184348;23;20200;-86
2023/12/15 00:09:49;;;;;;;2.67;2.20;;;;;;;;;;6183698;23;20209;-86
2023/12/15 00:12:17;;;;;;;6.73;3.10;;;;;;;;;;6183467;23;20245;-86
2023/12/15 00:14:46;;;;;;;5.53;3.83;;;;;;;;;;6182944;23;20184;-83
2023/12/15 00:17:14;;;;;;;1.07;1.07;;;;;;;;;;6183638;23;20165;-83
2023/12/15 00:19:43;;;;;;;0.93;0.93;;;;;;;;;;6183897;23;20181;-83
2023/12/15 00:22:12;;;;;;;4.57;2.20;;;;;;;;;;6183691;23;20185;-83
2023/12/15 00:24:41;;;;;;;5.00;2.93;;;;;;;;;;6182962;23;20202;-83
2023/12/15 00:27:11;;;;;;;5.27;3.17;;;;;;;;;;6183875;23;20244;-83
2023/12/15 00:29:39;;;;;;;4.20;2.80;;;;;;;;;;6183877;23;20264;-83
2023/12/15 00:32:07;;;;;;;2.73;2.53;;;;;;;;;;6183007;23;20170;-83
2023/12/15 00:34:37;;;;;;;2.23;2.10;;;;;;;;;;6183264;23;20240;-83
2023/12/15 00:37:05;;;;;;;12.87;5.73;;;;;;;;;;6183757;23;20165;-83
2023/12/15 00:39:38;;;;;;;6.60;4.40;;;;;;;;;;6183645;23;20229;-83
2023/12/15 00:42:07;;;;;;;4.90;2.63;;;;;;;;;;6183505;23;20181;-83
2023/12/15 00:44:35;;;;;;;1.50;1.40;;;;;;;;;;6182529;23;20213;-83
2023/12/15 00:47:04;;;;;;;15.43;6.03;;;;;;;;;;6184082;23;20460;-83
2023/12/15 00:49:32;;;;;;;3.53;3.07;;;;;;;;;;6184757;23;20185;-83
2023/12/15 00:52:01;;;;;;;5.63;3.30;;;;;;;;;;6183966;23;20181;-83
2023/12/15 00:54:29;;;;;;;11.30;5.07;;;;;;;;;;6183495;23;20180;-83
2023/12/15 00:56:59;;;;;;;4.60;2.27;;;;;;;;;;6183739;23;20180;-83
2023/12/15 00:59:28;;;;;;;8.00;3.80;;;;;;;;;;6183816;23;20193;-83
2023/12/15 01:01:57;;;;;;;1.73;1.63;;;;;;;;;;6183723;23;20187;-83
2023/12/15 01:04:25;;;;;;;1.23;1.23;;;;;;;;;;6183569;23;20176;-83
2023/12/15 01:06:53;;;;;;;11.03;3.60;;;;;;;;;;6183363;23;20193;-83
2023/12/15 01:09:22;;;;;;;1.17;1.17;;;;;;;;;;6183554;23;20177;-83
2023/12/15 01:11:50;;;;;;;8.80;3.17;;;;;;;;;;6183787;23;20183;-83
2023/12/15 01:14:20;;;;;;;8.07;2.43;;;;;;;;;;6183128;23;20170;-83
2023/12/15 01:16:49;;;;;;;3.63;3.07;;;;;;;;;;6184541;23;20165;-83
2023/12/15 01:19:18;;;;;;;4.00;3.00;;;;;;;;;;6185592;23;20181;-83
2023/12/15 01:21:47;;;;;;;3.30;2.00;;;;;;;;;;6185641;23;20205;-83
2023/12/15 01:24:16;;;;;;;1.33;1.20;;;;;;;;;;6185508;23;20298;-83
2023/12/15 01:26:44;;;;;;;2.07;1.97;;;;;;;;;;6185090;23;20237;-83
2023/12/15 01:29:13;;;;;;;15.67;2.00;;;;;;;;;;6185609;23;20174;-83
2023/12/15 01:31:42;;;;;;;3.30;1.90;;;;;;;;;;6185777;23;20189;-83
2023/12/15 01:34:11;;;;;;;4.20;1.97;;;;;;;;;;6185286;23;20177;-83
2023/12/15 01:36:40;;;;;;;0.73;0.73;;;;;;;;;;6185152;23;20261;-83
2023/12/15 01:39:08;;;;;;;7.37;4.33;;;;;;;;;;6186022;23;20201;-83
2023/12/15 01:41:36;;;;;;;2.10;1.87;;;;;;;;;;6184931;23;20173;-83
2023/12/15 01:44:05;;;;;;;9.67;3.97;;;;;;;;;;6184648;23;20212;-83
2023/12/15 01:46:34;;;;;;;5.63;2.43;;;;;;;;;;6185091;23;20279;-83
2023/12/15 01:49:03;;;;;;;13.63;4.17;;;;;;;;;;6185536;23;20219;-83
2023/12/15 01:51:32;;;;;;;8.93;1.67;;;;;;;;;;6185356;23;20258;-83
2023/12/15 01:54:00;;;;;;;5.70;3.43;;;;;;;;;;6185017;23;20181;-83
2023/12/15 01:56:29;;;;;;;5.57;3.23;;;;;;;;;;6185265;23;20181;-83
2023/12/15 01:58:58;;;;;;;8.20;2.00;;;;;;;;;;6185147;23;20264;-83
2023/12/15 02:01:26;;;;;;;8.47;3.43;;;;;;;;;;6184939;23;20203;-83
2023/12/15 02:03:55;;;;;;;7.37;2.90;;;;;;;;;;6184780;23;20264;-83
2023/12/15 02:06:24;;;;;;;3.63;2.53;;;;;;;;;;6184931;23;20247;-83
2023/12/15 02:08:53;;;;;;;14.63;4.77;;;;;;;;;;6185236;23;20263;-83
2023/12/15 02:11:22;;;;;;;5.93;3.60;;;;;;;;;;6185259;23;20189;-83
2023/12/15 02:13:50;;;;;;;10.23;5.20;;;;;;;;;;6184913;23;20185;-83
2023/12/15 02:16:19;;;;;;;13.43;4.57;;;;;;;;;;6184419;23;20260;-83
2023/12/15 02:18:47;;;;;;;2.87;2.07;;;;;;;;;;6185057;23;20177;-83
2023/12/15 02:21:16;;;;;;;11.53;2.33;;;;;;;;;;6184955;23;20260;-83
2023/12/15 02:23:46;;;;;;;15.33;6.37;;;;;;;;;;6184895;23;20180;-84
2023/12/15 02:26:14;;;;;;;13.67;5.57;;;;;;;;;;6184328;23;20179;-84
2023/12/15 02:28:43;;;;;;;5.63;2.97;;;;;;;;;;6184614;23;20205;-83
2023/12/15 02:31:11;;;;;;;20.17;6.97;;;;;;;;;;6184844;23;20236;-83
2023/12/15 02:33:39;;;;;;;7.37;3.77;;;;;;;;;;6184306;23;20174;-84
2023/12/15 02:36:09;;;;;;;8.13;5.10;;;;;;;;;;6184151;23;20186;-83
2023/12/15 02:38:37;;;;;;;2.13;1.70;;;;;;;;;;6185147;23;20176;-83
2023/12/15 02:41:11;;;;;;;2.70;1.73;;;;;;;;;;6184788;23;20177;-83
2023/12/15 02:43:40;;;;;;;12.53;4.03;;;;;;;;;;6184229;23;20220;-84
2023/12/15 02:46:08;;;;;;;4.17;2.10;;;;;;;;;;6184321;23;20188;-83
2023/12/15 02:48:37;;;;;;;9.03;2.90;;;;;;;;;;6184804;23;20193;-83
2023/12/15 02:51:06;;;;;;;8.10;1.80;;;;;;;;;;6184768;23;20178;-83
2023/12/15 02:53:34;;;;;;;6.23;2.63;;;;;;;;;;6184113;23;20174;-83
2023/12/15 02:56:03;;;;;;;4.63;1.50;;;;;;;;;;6183971;23;20256;-83
2023/12/15 02:58:33;;;;;;;1.07;1.07;;;;;;;;;;6185281;23;20173;-83
2023/12/15 03:01:02;;;;;;;2.47;1.83;;;;;;;;;;6184662;23;20239;-83
2023/12/15 03:03:31;;;;;;;3.53;3.33;;;;;;;;;;6184585;23;20221;-83
2023/12/15 03:05:59;;;;;;;5.33;2.63;;;;;;;;;;6183625;23;20206;-83
2023/12/15 03:08:28;;;;;;;3.40;1.30;;;;;;;;;;6185002;23;20234;-83
2023/12/15 03:10:57;;;;;;;1.00;1.00;;;;;;;;;;6184525;23;20174;-83
2023/12/15 03:13:28;;;;;;;0.97;0.93;;;;;;;;;;6184685;23;20209;-83
2023/12/15 03:16:03;;;;;;;5.20;3.63;;;;;;;;;;6184114;23;20177;-83
2023/12/15 03:18:31;;;;;;;4.00;2.83;;;;;;;;;;6184442;23;20170;-83
2023/12/15 03:21:01;;;;;;;1.10;1.10;;;;;;;;;;6184585;23;20174;-83
2023/12/15 03:23:29;;;;;;;11.87;3.67;;;;;;;;;;6184380;23;20175;-83
2023/12/15 03:25:58;;;;;;;2.13;2.03;;;;;;;;;;6183517;23;20249;-84
2023/12/15 03:28:27;;;;;;;1.57;1.47;;;;;;;;;;6184434;23;20197;-83
2023/12/15 03:30:55;;;;;;;3.83;2.30;;;;;;;;;;6184669;23;20179;-83
2023/12/15 03:33:26;;;;;;;3.73;1.67;;;;;;;;;;6183752;23;20173;-83
2023/12/15 03:35:55;;;;;;;8.77;5.13;;;;;;;;;;6184052;23;20182;-83
2023/12/15 03:38:23;;;;;;;5.47;2.13;;;;;;;;;;6183838;23;20175;-83
2023/12/15 03:40:52;;;;;;;19.27;5.30;;;;;;;;;;6184117;23;20174;-83
2023/12/15 03:43:20;;;;;;;10.97;4.07;;;;;;;;;;6184235;23;20198;-84
2023/12/15 03:45:49;;;;;;;11.23;3.53;;;;;;;;;;6183705;23;20456;-83
2023/12/15 03:48:17;;;;;;;1.43;1.33;;;;;;;;;;6183863;23;20190;-83
2023/12/15 03:50:47;;;;;;;8.30;3.13;;;;;;;;;;6184283;23;20264;-83
2023/12/15 03:53:16;;;;;;;12.23;5.20;;;;;;;;;;6184605;23;20209;-86
2023/12/15 03:55:44;;;;;;;15.83;4.27;;;;;;;;;;6183346;23;20208;-86
2023/12/15 03:58:13;;;;;;;14.43;5.40;;;;;;;;;;6184148;23;20174;-86
2023/12/15 04:00:42;;;;;;;7.93;2.30;;;;;;;;;;6183833;23;20174;-86
2023/12/15 04:03:10;;;;;;;4.93;1.80;;;;;;;;;;6183791;23;20174;-86
2023/12/15 04:05:39;;;;;;;0.80;0.80;;;;;;;;;;6183164;23;20219;-86
2023/12/15 04:08:09;;;;;;;0.60;0.60;;;;;;;;;;6183514;23;20233;-86
2023/12/15 04:10:39;;;;;;;4.93;1.87;;;;;;;;;;6184585;23;20182;-83
2023/12/15 04:13:07;;;;;;;7.13;2.83;;;;;;;;;;6183656;23;20177;-83
2023/12/15 04:15:36;;;;;;;7.40;1.80;;;;;;;;;;6183587;23;20182;-83
2023/12/15 04:18:04;;;;;;;17.27;5.63;;;;;;;;;;6183594;23;20177;-83
2023/12/15 04:20:33;;;;;;;2.67;1.30;;;;;;;;;;6184121;23;20181;-83
2023/12/15 04:23:02;;;;;;;7.83;3.10;;;;;;;;;;6183627;23;20167;-83
2023/12/15 04:25:34;;;;;;;6.60;1.93;;;;;;;;;;6183345;23;20220;-84
2023/12/15 04:28:03;;;;;;;6.40;1.97;;;;;;;;;;6183940;23;20202;-86
2023/12/15 04:30:31;;;;;;;9.97;3.67;;;;;;;;;;6183806;23;20207;-86
2023/12/15 04:33:00;;;;;;;9.90;4.50;;;;;;;;;;6184028;23;20197;-86
2023/12/15 04:35:28;;;;;;;1.37;1.37;;;;;;;;;;6183353;23;20186;-86
2023/12/15 04:37:57;;;;;;;11.20;2.37;;;;;;;;;;6183507;23;20171;-86
2023/12/15 04:40:26;;;;;;;7.93;4.20;;;;;;;;;;6184345;23;20189;-86
2023/12/15 04:42:55;;;;;;;1.40;1.00;;;;;;;;;;6183971;23;20186;-86
2023/12/15 04:45:24;;;;;;;10.23;3.87;;;;;;;;;;6183195;23;20205;-86
2023/12/15 04:47:54;;;;;;;14.60;4.20;;;;;;;;;;6183541;23;20177;-86
2023/12/15 04:50:23;;;;;;;0.70;0.70;;;;;;;;;;6183824;23;20421;-86
2023/12/15 04:52:52;;;;;;;17.83;3.97;;;;;;;;;;6183731;23;20218;-86
2023/12/15 04:55:20;;;;;;;6.63;5.23;;;;;;;;;;6183475;23;20188;-86
2023/12/15 04:57:48;;;;;;;6.97;2.07;;;;;;;;;;6183391;23;20179;-86
2023/12/15 05:00:19;;;;;;;6.10;5.47;;;;;;;;;;6183816;23;20177;-87
2023/12/15 05:02:48;;;;;;;10.40;3.87;;;;;;;;;;6184003;23;20202;-87
2023/12/15 05:05:18;;;;;;;14.10;2.53;;;;;;;;;;6182834;23;20173;-86
2023/12/15 05:07:47;;;;;;;0.70;0.70;;;;;;;;;;6182788;23;20257;-86
2023/12/15 05:10:16;;;;;;;11.33;3.30;;;;;;;;;;6183800;23;20261;-86
2023/12/15 05:12:44;;;;;;;8.17;1.23;;;;;;;;;;6183929;23;20185;-86
2023/12/15 05:15:13;;;;;;;17.63;3.60;;;;;;;;;;6183305;23;20358;-86
2023/12/15 05:17:43;;;;;;;16.90;6.00;;;;;;;;;;6183117;23;20177;-86
2023/12/15 05:20:12;;;;;;;3.03;1.87;;;;;;;;;;6183296;23;20174;-86
2023/12/15 05:22:41;;;;;;;1.80;1.10;;;;;;;;;;6183667;23;20185;-86
2023/12/15 05:25:10;;;;;;;21.00;5.33;;;;;;;;;;6182692;23;20281;-86
2023/12/15 05:27:38;;;;;;;5.60;3.00;;;;;;;;;;6183218;23;20181;-86
2023/12/15 05:30:08;;;;;;;14.77;4.03;;;;;;;;;;6183251;23;20202;-86
2023/12/15 05:32:37;;;;;;;12.80;3.83;;;;;;;;;;6183453;23;20177;-86
2023/12/15 05:35:07;;;;;;;11.23;1.80;;;;;;;;;;6182545;23;20192;-84
2023/12/15 05:37:36;;;;;;;12.70;3.17;;;;;;;;;;6182590;23;20174;-83
2023/12/15 05:40:05;;;;;;;18.97;5.67;;;;;;;;;;6183119;23;20220;-83
2023/12/15 05:42:34;;;;;;;9.03;4.10;;;;;;;;;;6183457;23;20179;-83
2023/12/15 05:45:02;;;;;;;11.40;3.67;;;;;;;;;;6182589;23;20206;-84
2023/12/15 05:47:31;;;;;;;2.27;1.10;;;;;;;;;;6183151;23;20171;-86
2023/12/15 05:50:00;;;;;;;16.23;4.27;;;;;;;;;;6182817;23;20282;-86
2023/12/15 05:52:30;;;;;;;3.40;1.50;;;;;;;;;;6183150;23;20170;-86
2023/12/15 05:54:58;;;;;;;5.07;4.10;;;;;;;;;;6182603;23;20257;-86
2023/12/15 05:57:27;;;;;;;0.50;0.50;;;;;;;;;;6182182;23;20174;-86
2023/12/15 05:59:55;;;;;;;16.83;4.30;;;;;;;;;;6183177;23;20189;-86
2023/12/15 06:02:24;;;;;;;1.07;1.07;;;;;;;;;;6183441;23;20188;-86
2023/12/15 06:04:53;;;;;;;1.37;0.83;;;;;;;;;;6184478;23;20179;-86
2023/12/15 06:07:21;;;;;;;3.93;3.07;;;;;;;;;;6184358;23;20167;-86
2023/12/15 06:09:51;;;;;;;0.60;0.60;;;;;;;;;;6184507;23;20217;-86
2023/12/15 06:12:20;;;;;;;4.87;2.47;;;;;;;;;;6184695;23;20449;-85
2023/12/15 06:14:48;;;;;;;8.30;1.57;;;;;;;;;;6184577;23;20174;-86
2023/12/15 06:17:16;;;;;;;4.97;2.57;;;;;;;;;;6183778;23;20178;-86
2023/12/15 06:19:45;;;;;;;17.67;4.23;;;;;;;;;;6184810;23;20180;-85
2023/12/15 06:22:13;;;;;;;1.83;1.73;;;;;;;;;;6184882;23;20181;-86
2023/12/15 06:24:42;;;;;;;4.37;1.73;;;;;;;;;;6184310;23;20178;-86
2023/12/15 06:27:12;;;;;;;3.03;1.30;;;;;;;;;;6183989;23;20205;-87
2023/12/15 06:29:41;;;;;;;10.93;3.43;;;;;;;;;;6183714;23;20197;-86
2023/12/15 06:32:12;;;;;;;5.10;1.70;;;;;;;;;;6184539;23;20182;-86
2023/12/15 06:34:43;;;;;;;5.30;3.37;;;;;;;;;;6184496;23;20202;-87
2023/12/15 06:37:11;;;;;;;15.27;3.23;;;;;;;;;;6183980;23;20275;-87
2023/12/15 06:39:40;;;;;;;7.57;3.07;;;;;;;;;;6184554;23;20244;-87
2023/12/15 06:42:09;;;;;;;8.53;3.00;;;;;;;;;;6184545;23;20261;-87
2023/12/15 06:44:39;;;;;;;6.73;1.63;;;;;;;;;;6184659;23;20211;-84
2023/12/15 06:47:08;;;;;;;8.10;2.07;;;;;;;;;;6183904;23;20174;-87
2023/12/15 06:49:36;;;;;;;5.47;3.00;;;;;;;;;;6183933;23;20197;-86
2023/12/15 06:52:05;;;;;;;11.13;4.50;;;;;;;;;;6184600;23;20183;-86
2023/12/15 06:54:34;;;;;;;2.13;2.00;;;;;;;;;;6184891;23;20245;-86
2023/12/15 06:57:02;;;;;;;2.07;2.00;;;;;;;;;;6183753;23;20196;-87
2023/12/15 06:59:31;;;;;;;15.87;4.13;;;;;;;;;;6184339;23;20189;-87
2023/12/15 07:02:01;;;;;;;15.27;3.30;;;;;;;;;;6183864;23;20170;-87
2023/12/15 07:04:29;;;;;;;2.37;1.20;;;;;;;;;;6185021;23;20171;-87
2023/12/15 07:06:58;;;;;;;1.73;1.63;;;;;;;;;;6183449;23;20184;-87
2023/12/15 07:09:26;;;;;;;10.47;1.73;;;;;;;;;;6184275;23;20208;-88
2023/12/15 07:11:57;;;;;;;4.07;1.10;;;;;;;;;;6184415;23;20206;-87
2023/12/15 07:14:25;;;;;;;4.83;1.43;;;;;;;;;;6183740;23;20181;-88
2023/12/15 07:16:54;;;;;;;1.50;1.00;;;;;;;;;;6183368;23;20212;-87
2023/12/15 07:19:24;;;;;;;5.90;2.27;;;;;;;;;;6183515;23;20181;-87
2023/12/15 07:21:53;;;;;;;3.30;2.40;;;;;;;;;;6184099;23;20174;-87
2023/12/15 07:24:21;;;;;;;13.60;3.03;;;;;;;;;;6184036;23;20178;-87
2023/12/15 07:26:50;;;;;;;5.77;2.40;;;;;;;;;;6183252;23;20231;-87
2023/12/15 07:29:21;;;;;;;2.10;1.33;;;;;;;;;;6183140;23;20179;-87
2023/12/15 07:31:50;;;;;;;2.00;1.20;;;;;;;;;;6183580;23;20267;-87
2023/12/15 07:34:19;;;;;;;4.07;2.63;;;;;;;;;;6183636;23;20177;-87
2023/12/15 07:36:49;;;;;;;3.83;3.53;;;;;;;;;;6183235;23;20181;-87
2023/12/15 07:39:21;;;;;;;1.63;1.57;;;;;;;;;;6183718;23;20226;-87
2023/12/15 07:41:50;;;;;;;1.03;1.03;;;;;;;;;;6183691;23;20248;-87
2023/12/15 07:44:18;;;;;;;3.60;0.97;;;;;;;;;;6184636;23;20209;-87
2023/12/15 07:46:47;;;;;;;5.83;2.23;;;;;;;;;;6183857;23;20176;-87
2023/12/15 07:49:15;;;;;;;12.90;3.47;;;;;;;;;;6183574;23;20202;-87
2023/12/15 07:51:45;;;;;;;16.90;5.33;;;;;;;;;;6183965;23;20263;-87
2023/12/15 07:54:15;;;;;;;6.87;2.40;;;;;;;;;;6184014;23;20193;-86
2023/12/15 07:56:44;;;;;;;2.97;1.77;;;;;;;;;;6183705;23;20186;-87
2023/12/15 07:59:12;;;;;;;25.03;4.77;;;;;;;;;;6183865;23;20177;-87
2023/12/15 08:01:42;;;;;;;4.80;2.43;;;;;;;;;;6183989;23;20281;-87
2023/12/15 08:04:10;;;;;;;12.60;3.33;;;;;;;;;;6184819;23;20245;-88
2023/12/15 08:06:41;;;;;;;4.43;2.23;;;;;;;;;;6185746;23;20189;-87
2023/12/15 08:09:10;;;;;;;12.77;4.40;;;;;;;;;;6184285;23;20171;-87
2023/12/15 08:11:40;;;;;;;9.53;3.90;;;;;;;;;;6184864;23;20236;-87
2023/12/15 08:14:11;;;;;;;1.17;1.17;;;;;;;;;;6184155;23;20207;-87
2023/12/15 08:16:39;;;;;;;11.77;3.67;;;;;;;;;;6183453;23;20168;-85
2023/12/15 08:19:08;;;;;;;4.50;2.03;;;;;;;;;;6184016;23;20210;-85
2023/12/15 08:21:37;;;;;;;18.00;4.40;;;;;;;;;;6184343;23;20178;-85
2023/12/15 08:24:07;;;;;;;6.43;2.03;;;;;;;;;;6184059;23;20182;-84
2023/12/15 08:26:35;;;;;;;6.97;2.80;;;;;;;;;;6183343;23;20213;-83
2023/12/15 08:29:05;;;;;;;5.03;1.63;;;;;;;;;;6184491;23;20173;-85
2023/12/15 08:31:34;;;;;;;11.73;4.87;;;;;;;;;;6183981;23;20241;-84
2023/12/15 08:34:02;;;;;;;4.93;1.97;;;;;;;;;;6184150;23;20209;-85
2023/12/15 08:36:31;;;;;;;5.77;2.20;;;;;;;;;;6183269;23;20254;-85
2023/12/15 08:39:00;;;;;;;2.57;0.97;;;;;;;;;;6183825;23;20216;-87
2023/12/15 08:41:28;;;;;;;5.63;2.70;;;;;;;;;;6184281;23;20189;-87
2023/12/15 08:43:57;;;;;;;21.47;3.70;;;;;;;;;;6183513;23;20217;-87
2023/12/15 08:46:27;;;;;;;30.47;5.03;;;;;;;;;;6183657;23;20197;-88
2023/12/15 08:48:56;;;;;;;6.50;3.03;;;;;;;;;;6183254;23;20171;-87
2023/12/15 08:51:24;;;;;;;9.57;2.13;;;;;;;;;;6183113;23;20194;-87
2023/12/15 08:53:54;;;;;;;10.37;2.90;;;;;;;;;;6183550;23;20169;-87
2023/12/15 08:56:23;;;;;;;6.90;3.40;;;;;;;;;;6183832;23;20233;-85
2023/12/15 08:58:52;;;;;;;4.73;3.27;;;;;;;;;;6182983;23;20175;-85
2023/12/15 09:01:20;;;;;;;10.93;2.90;;;;;;;;;;6183879;23;20163;-82
2023/12/15 09:03:50;;;;;;;1.73;1.63;;;;;;;;;;6183537;23;20411;-86
2023/12/15 09:06:19;;;;;;;4.80;2.40;;;;;;;;;;6183492;23;20179;-87
2023/12/15 09:08:57;;;;;;;0.50;0.50;;;;;;;;;;6182579;23;20203;-86
2023/12/15 09:11:26;;;;;;;0.80;0.80;;;;;;;;;;6183596;23;20187;-87
2023/12/15 09:13:54;;;;;;;1.80;1.37;;;;;;;;;;6183918;23;20173;-87
2023/12/15 09:16:23;;;;;;;3.63;1.40;;;;;;;;;;6185262;23;20174;-83
2023/12/15 09:18:53;;;;;;;3.80;2.33;;;;;;;;;;6184291;23;20276;-82
2023/12/15 09:21:22;;;;;;;2.80;1.60;;;;;;;;;;6183895;23;20171;-87
2023/12/15 09:23:53;;;;;;;0.80;0.80;;;;;;;;;;6184580;23;20174;-86
2023/12/15 09:26:22;;;;;;;1.17;1.17;;;;;;;;;;6184699;23;20173;-87
2023/12/15 09:28:50;;;;;;;1.63;1.37;;;;;;;;;;6183751;23;20179;-87
2023/12/15 09:31:19;;;;;;;8.13;2.20;;;;;;;;;;6182822;23;20193;-87
2023/12/15 09:33:48;;;;;;;10.33;2.23;;;;;;;;;;6184125;23;20274;-87
2023/12/15 09:36:18;;;;;;;13.13;3.50;;;;;;;;;;6182968;23;20202;-87
2023/12/15 09:38:47;;;;;;;4.27;2.63;;;;;;;;;;6184601;23;20178;-86
2023/12/15 09:41:16;;;;;;;9.03;1.70;;;;;;;;;;6184898;23;20181;-86
2023/12/15 09:43:44;;;;;;;10.70;2.87;;;;;;;;;;6185314;23;20273;-87
2023/12/15 09:46:13;;;;;;;4.77;2.83;;;;;;;;;;6185559;23;20171;-87
2023/12/15 09:48:42;;;;;;;1.43;0.87;;;;;;;;;;6184682;23;20167;-87
2023/12/15 09:51:16;;;;;;;3.40;1.90;;;;;;;;;;6185840;23;20195;-86
2023/12/15 09:53:48;;;;;;;3.17;2.87;;;;;;;;;;6185523;23;20206;-87
2023/12/15 09:56:17;;;;;;;1.80;1.60;;;;;;;;;;6185063;23;20187;-87
2023/12/15 09:58:45;;;;;;;1.23;1.13;;;;;;;;;;6185797;23;20243;-87
2023/12/15 10:01:14;;;;;;;12.53;3.40;;;;;;;;;;6185663;23;20171;-87
2023/12/15 10:03:43;;;;;;;8.43;2.30;;;;;;;;;;6185777;23;20187;-87
2023/12/15 10:06:12;;;;;;;5.57;2.83;;;;;;;;;;6185492;23;20178;-87
2023/12/15 10:08:40;;;;;;;7.37;2.13;;;;;;;;;;6184211;23;20194;-87
2023/12/15 10:11:32;;;;;;;9.40;2.87;;;;;;;;;;6185286;23;20214;-86
2023/12/15 10:14:04;;;;;;;13.10;3.93;;;;;;;;;;6185708;23;20194;-87
2023/12/15 10:16:33;;;;;;;4.90;2.37;;;;;;;;;;6185479;23;20175;-87
2023/12/15 10:19:03;;;;;;;5.33;2.10;;;;;;;;;;6185223;23;20178;-87
2023/12/15 10:21:32;;;;;;;12.83;3.27;;;;;;;;;;6185570;23;20199;-87
2023/12/15 10:24:01;;;;;;;2.70;2.30;;;;;;;;;;6185155;23;20170;-87
2023/12/15 10:26:31;;;;;;;10.50;3.90;;;;;;;;;;6184871;23;20181;-87
2023/12/15 10:28:59;;;;;;;0.60;0.60;;;;;;;;;;6184724;23;20260;-87
2023/12/15 10:31:28;;;;;;;8.20;2.23;;;;;;;;;;6185089;23;20204;-87
2023/12/15 10:33:57;;;;;;;5.60;1.97;;;;;;;;;;6185988;23;20223;-87
2023/12/15 10:36:29;;;;;;;6.13;2.13;;;;;;;;;;6185127;23;20205;-87
2023/12/15 10:38:57;;;;;;;2.37;1.37;;;;;;;;;;6184311;23;20437;-87
2023/12/15 10:41:26;;;;;;;12.23;3.30;;;;;;;;;;6184968;23;20241;-87
2023/12/15 10:43:56;;;;;;;2.30;1.27;;;;;;;;;;6184744;23;20195;-87
2023/12/15 10:46:24;;;;;;;7.87;2.97;;;;;;;;;;6184770;23;20211;-88
2023/12/15 10:48:54;;;;;;;5.90;2.27;;;;;;;;;;6184398;23;20186;-87
2023/12/15 10:51:24;;;;;;;6.40;2.20;;;;;;;;;;6183629;23;20191;-87
2023/12/15 10:53:53;;;;;;;2.90;1.43;;;;;;;;;;6185112;23;20257;-87
2023/12/15 10:56:22;;;;;;;5.77;2.80;;;;;;;;;;6184439;23;20178;-87
2023/12/15 10:58:51;;;;;;;2.57;2.37;;;;;;;;;;6184795;23;20188;-87
2023/12/15 11:01:20;;;;;;;5.77;2.20;;;;;;;;;;6185033;23;20265;-87
2023/12/15 11:03:49;;;;;;;3.03;1.73;;;;;;;;;;6186290;23;20171;-87
2023/12/15 11:06:26;;;;;;;2.00;1.80;;;;;;;;;;6185201;23;20177;-87
2023/12/15 11:09:00;;;;;;;10.73;2.63;;;;;;;;;;6185049;23;20231;-86
2023/12/15 11:11:30;;;;;;;2.63;1.90;;;;;;;;;;6184986;23;20204;-87
2023/12/15 11:14:02;;;;;;;8.73;2.70;;;;;;;;;;6184954;23;20179;-85
2023/12/15 11:16:34;;;;;;;2.30;2.03;;;;;;;;;;6184859;23;20179;-86
2023/12/15 11:19:02;;;;;;;4.33;1.73;;;;;;;;;;6185233;23;20216;-86
2023/12/15 11:21:31;;;;;;;5.90;3.00;;;;;;;;;;6185241;23;20186;-86
2023/12/15 11:24:02;;;;;;;8.53;3.53;;;;;;;;;;6184961;23;20258;-86
2023/12/15 11:26:32;;;;;;;5.23;2.87;;;;;;;;;;6185236;23;20182;-88
2023/12/15 11:29:04;;;;;;;4.93;2.00;;;;;;;;;;6184862;23;20171;-86
2023/12/15 11:31:34;;;;;;;16.87;5.17;;;;;;;;;;6184363;23;20179;-86
2023/12/15 11:34:03;;;;;;;4.03;2.17;;;;;;;;;;6184448;23;20271;-86
2023/12/15 11:36:40;;;;;;;11.13;4.87;;;;;;;;;;6184964;23;20185;-86
2023/12/15 11:39:12;;;;;;;10.27;3.13;;;;;;;;;;6185084;23;20182;-86
2023/12/15 11:41:41;;;;;;;27.27;3.27;;;;;;;;;;6183747;23;20225;-86
2023/12/15 11:44:09;;;;;;;9.27;2.13;;;;;;;;;;6185394;23;20248;-87
2023/12/15 11:46:39;;;;;;;4.10;2.23;;;;;;;;;;6184494;23;20179;-86
2023/12/15 11:49:08;;;;;;;5.53;3.10;;;;;;;;;;6184235;23;20230;-86
2023/12/15 11:51:38;;;;;;;4.43;1.27;;;;;;;;;;6183516;23;20203;-86
2023/12/15 11:54:07;;;;;;;2.23;1.63;;;;;;;;;;6184650;23;20179;-84
2023/12/15 11:56:36;;;;;;;3.83;1.67;;;;;;;;;;6184745;23;20199;-84
2023/12/15 11:59:04;;;;;;;2.37;2.13;;;;;;;;;;6184388;23;20246;-84
2023/12/15 12:01:35;;;;;;;1.87;1.77;;;;;;;;;;6183641;23;20179;-84
2023/12/15 12:04:06;;;;;;;12.17;4.60;;;;;;;;;;6184067;23;20234;-84
2023/12/15 12:06:36;;;;;;;16.27;2.73;;;;;;;;;;6184271;23;20198;-84
2023/12/15 12:09:04;;;;;;;16.27;3.50;;;;;;;;;;6183999;23;20179;-84
2023/12/15 12:11:33;;;;;;;12.53;3.00;;;;;;;;;;6183717;23;20171;-83
2023/12/15 12:14:03;;;;;;;5.40;2.03;;;;;;;;;;6184194;23;20404;-84
2023/12/15 12:16:33;;;;;;;4.47;1.77;;;;;;;;;;6183975;23;20202;-84
2023/12/15 12:19:02;;;;;;;8.43;3.23;;;;;;;;;;6183642;23;20171;-84
2023/12/15 12:21:32;;;;;;;11.97;4.27;;;;;;;;;;6184115;23;20193;-84
2023/12/15 12:24:01;;;;;;;1.40;1.30;;;;;;;;;;6183966;23;20174;-84
2023/12/15 12:26:30;;;;;;;4.13;2.10;;;;;;;;;;6183778;23;20217;-84
2023/12/15 12:28:59;;;;;;;11.13;2.77;;;;;;;;;;6184141;23;20186;-84
2023/12/15 12:31:30;;;;;;;24.90;3.47;;;;;;;;;;6183206;23;20265;-84
2023/12/15 12:33:59;;;;;;;14.67;2.63;;;;;;;;;;6183927;23;20297;-84
2023/12/15 12:36:28;;;;;;;10.40;2.80;;;;;;;;;;6184287;23;20175;-84
2023/12/15 12:38:59;;;;;;;10.23;3.47;;;;;;;;;;6184408;23;20182;-84
2023/12/15 12:41:27;;;;;;;14.07;2.90;;;;;;;;;;6183097;23;20181;-84
2023/12/15 12:43:56;;;;;;;10.67;3.87;;;;;;;;;;6183980;23;20199;-84
2023/12/15 12:46:24;;;;;;;8.17;3.17;;;;;;;;;;6184149;23;20228;-84
2023/12/15 12:48:53;;;;;;;10.73;3.17;;;;;;;;;;6183722;23;20187;-84
2023/12/15 12:51:23;;;;;;;7.50;5.60;;;;;;;;;;6183043;23;20206;-84
2023/12/15 12:53:51;;;;;;;3.20;1.83;;;;;;;;;;6183621;23;20202;-84
2023/12/15 12:56:22;;;;;;;5.27;1.60;;;;;;;;;;6183816;23;20198;-84
2023/12/15 12:58:50;;;;;;;3.73;2.50;;;;;;;;;;6184602;23;20199;-84
2023/12/15 13:01:19;;;;;;;12.43;3.40;;;;;;;;;;6183328;23;20182;-83
2023/12/15 13:03:48;;;;;;;4.93;1.87;;;;;;;;;;6184803;23;20178;-84
2023/12/15 13:06:16;;;;;;;11.33;2.93;;;;;;;;;;6184218;23;20185;-85
2023/12/15 13:08:45;;;;;;;1.03;0.90;;;;;;;;;;6184217;23;20178;-87
2023/12/15 13:11:14;;;;;;;2.67;1.83;;;;;;;;;;6183544;23;20170;-84
2023/12/15 13:13:45;;;;;;;7.73;2.80;;;;;;;;;;6186492;23;20202;-84
2023/12/15 13:16:14;;;;;;;4.00;1.73;;;;;;;;;;6186222;23;20179;-84
2023/12/15 13:18:43;;;;;;;8.90;3.93;;;;;;;;;;6185515;23;20181;-84
2023/12/15 13:21:12;;;;;;;9.33;3.47;;;;;;;;;;6184899;23;20180;-84
2023/12/15 13:23:40;;;;;;;4.13;2.13;;;;;;;;;;6185840;23;20428;-85
2023/12/15 13:26:09;;;;;;;5.33;1.63;;;;;;;;;;6185314;23;20205;-83
2023/12/15 13:28:40;;;;;;;11.77;4.17;;;;;;;;;;6186342;23;20175;-84
2023/12/15 13:31:10;;;;;;;5.60;3.13;;;;;;;;;;6184689;23;20251;-84
2023/12/15 13:33:39;;;;;;;0.70;0.70;;;;;;;;;;6185792;23;20201;-84
2023/12/15 13:36:08;;;;;;;11.03;2.97;;;;;;;;;;6185551;23;20179;-84
2023/12/15 13:38:43;;;;;;;3.63;2.10;;;;;;;;;;6186086;23;20237;-84
2023/12/15 13:41:12;;;;;;;2.07;1.10;;;;;;;;;;6185523;23;20171;-84
2023/12/15 13:43:42;;;;;;;11.10;1.77;;;;;;;;;;6184803;23;20194;-84
2023/12/15 13:46:12;;;;;;;10.07;2.67;;;;;;;;;;6186230;23;20206;-84
2023/12/15 13:48:41;;;;;;;6.83;2.10;;;;;;;;;;6185138;23;20171;-84
2023/12/15 13:51:10;;;;;;;3.70;2.03;;;;;;;;;;6184977;23;20207;-84
2023/12/15 13:53:38;;;;;;;3.30;1.87;;;;;;;;;;6185780;23;20206;-83
2023/12/15 13:56:07;;;;;;;10.50;3.63;;;;;;;;;;6185603;23;20180;-87
2023/12/15 13:58:36;;;;;;;4.73;1.93;;;;;;;;;;6185711;23;20185;-87
2023/12/15 14:01:04;;;;;;;7.13;2.07;;;;;;;;;;6185205;23;20171;-87
2023/12/15 14:03:34;;;;;;;6.77;1.90;;;;;;;;;;6184865;23;20190;-87
2023/12/15 14:06:04;;;;;;;6.63;2.23;;;;;;;;;;6186025;23;20187;-87
2023/12/15 14:08:36;;;;;;;7.10;2.97;;;;;;;;;;6185410;23;20220;-86
2023/12/15 14:11:05;;;;;;;4.67;2.10;;;;;;;;;;6184166;23;20167;-86
2023/12/15 14:13:34;;;;;;;4.23;2.20;;;;;;;;;;6184881;23;20198;-86
2023/12/15 14:16:02;;;;;;;2.37;2.10;;;;;;;;;;6185398;23;20182;-86
2023/12/15 14:18:39;;;;;;;10.00;2.83;;;;;;;;;;6185540;23;20253;-84
2023/12/15 14:21:08;;;;;;;1.50;1.40;;;;;;;;;;6185428;23;20175;-84
2023/12/15 14:23:36;;;;;;;5.57;1.77;;;;;;;;;;6184408;23;20177;-84
2023/12/15 14:26:05;;;;;;;6.30;2.30;;;;;;;;;;6185441;23;20175;-84
2023/12/15 14:28:34;;;;;;;3.30;1.37;;;;;;;;;;6185347;23;20179;-84
2023/12/15 14:31:03;;;;;;;12.97;3.10;;;;;;;;;;6184826;23;20205;-84
2023/12/15 14:33:31;;;;;;;1.77;1.13;;;;;;;;;;6184783;23;20268;-83
2023/12/15 14:36:02;;;;;;;4.00;1.30;;;;;;;;;;6185692;23;20237;-84
2023/12/15 14:38:31;;;;;;;2.70;1.50;;;;;;;;;;6185487;23;20177;-83
2023/12/15 14:41:00;;;;;;;5.33;1.63;;;;;;;;;;6185527;23;20198;-83
2023/12/15 14:43:31;;;;;;;16.10;3.87;;;;;;;;;;6184833;23;20196;-84
2023/12/15 14:46:00;;;;;;;16.40;4.17;;;;;;;;;;6184614;23;20245;-84
2023/12/15 14:48:29;;;;;;;13.33;3.63;;;;;;;;;;6185147;23;20179;-84
2023/12/15 14:50:58;;;;;;;8.17;3.03;;;;;;;;;;6185792;23;20238;-83